Decoded Metar for KRKP (ROCKPORT in TX, USA) (IATA:RKP) | Meteo·Mobile Aviation Weather
aviador You're here:

KRKP Decoded Metar

ROCKPORT in TX, USA
Report Time2018-11-18 08:31:00
UTC Time2018-11-18 08:58:53
Flight Rules vfr VFR
Wind140° at 06 kt
W.Decomp.*RWY 14: 6.0 kt HW 0.6 kt LCW
RWY 18: 4.2 kt HW 4.3 kt LCW
W.Rank140° ranks 2
Current wind is below 140° avg. (10.2)
Visibility9999 m
Phenomena:N/A
Clouds:Scattered 028 Hf
Overcast 037 Hf
Expected CloudBase > 400 ft AGL from Temp-Dew spread
Ceiling3,700 ft
Temp19°C (ISA +4)
Dew Point18°C (94% RH)
QNH1018 hPa
Density Alt597 ft
Elevation20 ft
Report Wrong Elevation
Raw Report
KRKP 180831Z AUTO 14006KT 8SM SCT028 OVC037 19/18 A3006 RMK AO2
T01940178 $=

Extra information for KRKP:More info

Metar Taf Metar & Taf Last 4 Metars F.Rules Stats Wind Profile Meteogram Temp Stats Airport Information Weather charts Add Link Nearby VenuesMetar ALERT Operation Metar Decoded Social comments

AIRNAV info for KRKP